Time;durP1;ratioP1;P1;durP2;ratioP2;P2;SDS_P1;SDS_P2;PMS_P1;PMS_P2;Temp;Humidity;BMP_temperature;BMP_pressure;BME280_temperature;BME280_humidity;BME280_pressure;Samples;Min_cycle;Max_cycle;Signal;HPM_P1;HPM_P2
2021/11/21 00:07:57;;;;;;;23.90;12.40;;;;;;;8.38;84.22;98317.46;422739;1303;108860;-41
2021/11/21 00:18:05;;;;;;;25.40;14.70;;;;;;;8.38;84.21;98310.77;422729;1303;99934;-41
2021/11/21 00:28:12;;;;;;;25.80;15.50;;;;;;;8.29;84.13;98306.73;422719;1303;111435;-42
2021/11/21 00:38:20;;;;;;;25.10;14.80;;;;;;;8.21;83.97;98303.91;422798;1303;108854;-41
2021/11/21 00:48:28;;;;;;;27.00;15.10;;;;;;;8.28;83.85;98297.10;422739;1303;98011;-41
2021/11/21 00:58:36;;;;;;;21.40;14.80;;;;;;;8.36;83.92;98298.92;422835;1303;108998;-42
2021/11/21 01:08:44;;;;;;;24.20;14.40;;;;;;;8.35;83.88;98293.05;422804;1303;99394;-41
2021/11/21 01:18:51;;;;;;;26.00;18.50;;;;;;;8.25;83.81;98274.48;418822;1306;5383427;-40
2021/11/21 01:28:58;;;;;;;24.70;15.00;;;;;;;8.20;83.72;98261.17;422429;1304;108947;-41
2021/11/21 01:39:06;;;;;;;24.10;15.60;;;;;;;8.27;83.72;98241.91;422652;1306;98072;-41
2021/11/21 01:49:14;;;;;;;26.90;17.30;;;;;;;8.31;83.69;98228.82;422466;1307;108946;-41
2021/11/21 01:59:21;;;;;;;25.20;16.70;;;;;;;8.38;83.76;98211.51;422645;1306;100008;-41
2021/11/21 02:09:28;;;;;;;31.60;20.70;;;;;;;8.43;83.77;98195.98;422631;1306;112441;-40
2021/11/21 02:19:36;;;;;;;36.80;23.20;;;;;;;8.24;83.81;98177.79;422453;1306;107971;-43
2021/11/21 02:29:42;;;;;;;37.60;22.30;;;;;;;8.19;83.61;98153.25;423163;1294;98877;-42
2021/11/21 02:39:49;;;;;;;33.50;21.90;;;;;;;8.07;83.49;98141.76;422902;1306;109808;-41
2021/11/21 02:49:56;;;;;;;35.90;23.60;;;;;;;8.07;83.79;98140.80;422430;1304;99273;-41
2021/11/21 03:00:04;;;;;;;39.00;24.10;;;;;;;7.99;83.71;98136.77;422763;1306;112341;-42
2021/11/21 03:10:10;;;;;;;38.10;24.00;;;;;;;7.87;83.73;98129.29;422643;1304;105936;-43
2021/11/21 03:20:25;;;;;;;38.90;22.60;;;;;;;7.70;83.58;98120.13;422835;1306;99286;-41
2021/11/21 03:30:32;;;;;;;31.70;20.60;;;;;;;7.75;83.68;98106.77;422795;1306;108887;-42
2021/11/21 03:40:41;;;;;;;34.00;21.50;;;;;;;7.79;83.66;98101.62;422504;1304;99312;-41
2021/11/21 03:50:47;;;;;;;30.30;20.70;;;;;;;7.77;83.66;98097.12;422631;1306;112504;-41
2021/11/21 04:00:55;;;;;;;29.70;21.40;;;;;;;7.59;83.43;98078.71;422914;1306;108905;-41
2021/11/21 04:11:02;;;;;;;34.00;22.50;;;;;;;7.41;83.59;98060.63;422771;1307;99285;-42
2021/11/21 04:21:11;;;;;;;26.60;17.60;;;;;;;7.38;83.59;98050.72;422457;1307;109571;-41
2021/11/21 04:31:18;;;;;;;25.70;15.60;;;;;;;7.45;83.76;98046.00;422767;1306;98905;-41
2021/11/21 04:41:26;;;;;;;20.00;14.30;;;;;;;7.53;83.66;98032.31;422432;1307;112425;-41
2021/11/21 04:51:34;;;;;;;20.00;14.10;;;;;;;7.48;83.51;98030.91;422667;1307;108981;-42
2021/11/21 05:01:41;;;;;;;25.70;16.60;;;;;;;7.39;83.61;98026.33;422478;1310;98938;-42
2021/11/21 05:11:49;;;;;;;26.40;16.70;;;;;;;7.24;83.55;98019.16;422912;1307;109000;-42
2021/11/21 05:21:56;;;;;;;21.60;14.20;;;;;;;7.09;83.51;98013.95;422410;1309;98995;-41
2021/11/21 05:32:05;;;;;;;26.30;15.70;;;;;;;7.05;83.48;98005.29;422937;1307;112432;-41
2021/11/21 05:42:14;;;;;;;22.00;14.80;;;;;;;7.02;83.47;97993.65;423007;1307;108888;-41
2021/11/21 05:52:22;;;;;;;27.40;18.30;;;;;;;6.86;83.33;97985.94;422399;1304;99314;-41
2021/11/21 06:02:29;;;;;;;29.50;18.90;;;;;;;6.65;83.41;97979.96;422793;1304;108797;-41
2021/11/21 06:12:37;;;;;;;25.00;16.90;;;;;;;6.50;83.55;97975.70;422629;1304;99962;-41
2021/11/21 06:22:45;;;;;;;30.50;19.00;;;;;;;6.52;83.50;97977.01;422496;1306;112628;-41
2021/11/21 06:32:52;;;;;;;25.30;16.90;;;;;;;6.48;83.57;97963.30;422694;1307;107998;-40
2021/11/21 06:42:59;;;;;;;25.90;17.10;;;;;;;6.67;83.65;97967.14;422748;1308;99270;-40
2021/11/21 06:53:07;;;;;;;32.20;20.50;;;;;;;6.79;83.76;97959.02;422381;1306;110962;-40
2021/11/21 07:03:15;;;;;;;34.00;20.60;;;;;;;6.81;83.62;97955.18;422886;1306;99271;-41
2021/11/21 07:13:22;;;;;;;34.70;21.00;;;;;;;6.71;83.54;97956.98;422545;1310;112724;-44
2021/11/21 07:23:29;;;;;;;25.70;18.70;;;;;;;6.79;83.55;97952.64;422739;1310;108840;-41
2021/11/21 07:33:37;;;;;;;25.30;17.40;;;;;;;7.18;83.59;97952.52;422499;1304;98074;-42
2021/11/21 07:43:44;;;;;;;28.40;19.90;;;;;;;7.35;83.47;97956.38;422724;1304;108910;-41
2021/11/21 07:53:52;;;;;;;31.10;19.10;;;;;;;7.32;83.32;97951.41;422834;1304;99177;-41
2021/11/21 08:03:59;;;;;;;35.30;23.10;;;;;;;7.31;83.28;97953.54;422534;1310;112913;-40
2021/11/21 08:14:06;;;;;;;22.10;16.10;;;;;;;7.44;83.21;97947.76;422831;1304;108868;-41
2021/11/21 08:24:12;;;;;;;21.10;15.90;;;;;;;7.71;82.98;97944.40;422414;1310;99371;-41
2021/11/21 08:34:20;;;;;;;27.00;19.20;;;;;;;7.91;83.07;97939.55;422889;1304;108964;-42
2021/11/21 08:44:28;;;;;;;29.40;18.50;;;;;;;8.11;83.02;97936.67;422848;1304;99153;-40
2021/11/21 08:54:35;;;;;;;28.30;18.40;;;;;;;8.31;82.70;97927.52;422670;1310;112581;-45
2021/11/21 09:04:42;;;;;;;38.00;26.00;;;;;;;8.59;82.37;97920.59;422681;1304;107934;-40
2021/11/21 09:14:52;;;;;;;36.80;25.70;;;;;;;8.59;82.10;97912.24;418059;1306;5758566;-41
2021/11/21 09:35:07;;;;;;;32.80;23.70;;;;;;;8.28;81.84;97900.05;422287;1304;99279;-43
2021/11/21 09:45:16;;;;;;;27.50;21.60;;;;;;;8.14;81.61;97901.88;422929;1304;112553;-41
2021/11/21 09:55:23;;;;;;;35.00;22.40;;;;;;;8.22;81.59;97889.71;422572;1304;108794;-41
2021/11/21 10:05:33;;;;;;;41.10;24.30;;;;;;;8.46;81.43;97880.21;422383;1304;98031;-41
2021/11/21 10:15:42;;;;;;;31.10;22.20;;;;;;;8.80;81.45;97875.38;422925;1304;107991;-42
2021/11/21 10:25:52;;;;;;;20.00;14.60;;;;;;;9.15;80.59;97860.48;422562;1310;99283;-41
2021/11/21 10:35:56;;;;;;;;;;;;;;;9.04;80.25;97857.13;422688;1304;111775;-40
2021/11/21 10:46:03;;;;;;;21.60;17.00;;;;;;;8.93;80.28;97856.71;422535;1304;108806;-41
2021/11/21 11:06:32;;;;;;;51.20;31.10;;;;;;;9.11;79.68;97845.38;422760;1307;109454;-43
2021/11/21 11:16:40;;;;;;;29.90;22.20;;;;;;;9.26;79.59;97842.44;421998;1307;98078;-40
2021/11/21 11:26:46;;;;;;;24.00;17.80;;;;;;;9.28;78.91;97842.43;422754;1307;112113;-40
2021/11/21 11:36:54;;;;;;;25.00;16.20;;;;;;;9.08;78.83;97839.94;422533;1304;108838;-42
2021/11/21 11:47:22;;;;;;;18.70;14.20;;;;;;;8.76;78.45;97844.61;422778;1304;98078;-41
2021/11/21 11:57:33;;;;;;;47.50;31.00;;;;;;;8.59;78.29;97837.84;422476;1304;108781;-41
2021/11/21 12:07:44;;;;;;;28.60;18.10;;;;;;;8.53;78.34;97826.98;422889;1305;99314;-41
2021/11/21 12:17:50;;;;;;;30.30;21.10;;;;;;;8.54;78.58;97827.62;422595;1304;112167;-42
2021/11/21 12:28:02;;;;;;;31.50;22.50;;;;;;;8.51;78.59;97822.13;422770;1304;109054;-41
2021/11/21 12:48:40;;;;;;;25.70;16.60;;;;;;;8.56;78.49;97820.60;422929;1304;108821;-41
2021/11/21 12:58:47;;;;;;;31.30;20.20;;;;;;;8.56;78.58;97821.17;422786;1304;99328;-41
2021/11/21 13:08:54;;;;;;;39.20;23.40;;;;;;;8.63;78.78;97822.03;422739;1304;112432;-41
2021/11/21 13:19:06;;;;;;;34.10;22.60;;;;;;;8.51;78.52;97818.44;422344;1304;108850;-41
2021/11/21 13:29:13;;;;;;;32.80;20.00;;;;;;;8.42;78.48;97818.50;422701;1304;99864;-40
2021/11/21 13:39:23;;;;;;;41.40;22.50;;;;;;;8.41;78.63;97822.99;422410;1306;108808;-41
2021/11/21 13:49:33;;;;;;;53.90;29.80;;;;;;;8.29;78.62;97831.19;422666;1304;99286;-41
2021/11/21 13:59:43;;;;;;;146.30;65.70;;;;;;;8.15;78.77;97836.33;422584;1304;111477;-41
2021/11/21 14:09:55;;;;;;;34.00;20.40;;;;;;;7.95;78.63;97846.13;422374;1304;108407;-41
2021/11/21 14:30:11;;;;;;;39.50;22.00;;;;;;;8.01;79.01;97846.98;422330;1304;107782;-41
2021/11/21 14:40:18;;;;;;;35.00;22.50;;;;;;;8.12;78.96;97851.59;422001;1304;98063;-41
2021/11/21 14:50:28;;;;;;;37.80;23.50;;;;;;;7.96;78.88;97856.69;422574;1306;112365;-40
2021/11/21 15:00:35;;;;;;;39.10;24.40;;;;;;;7.83;78.90;97860.92;422448;1306;106847;-41
2021/11/21 15:10:42;;;;;;;54.10;31.90;;;;;;;7.70;78.99;97868.48;422594;1304;99286;-41
2021/11/21 15:20:55;;;;;;;35.40;22.10;;;;;;;7.66;78.98;97874.42;422715;1304;112042;-41
2021/11/21 15:31:02;;;;;;;36.10;24.20;;;;;;;7.68;78.93;97872.86;422075;1304;108646;-40
2021/11/21 15:41:10;;;;;;;48.00;28.20;;;;;;;7.67;79.04;97873.69;422634;1307;98877;-42
2021/11/21 15:51:17;;;;;;;36.90;21.70;;;;;;;7.61;78.99;97876.86;422473;1304;108726;-42
2021/11/21 16:01:26;;;;;;;41.70;23.50;;;;;;;7.49;79.12;97889.41;422293;1306;99973;-42
2021/11/21 16:11:33;;;;;;;36.20;21.00;;;;;;;7.41;78.98;97898.56;422412;1306;112692;-41
2021/11/21 16:21:41;;;;;;;35.80;22.40;;;;;;;7.64;79.46;97902.19;422301;1304;108850;-41
2021/11/21 16:41:55;;;;;;;69.00;36.30;;;;;;;7.54;79.27;97907.81;422627;1306;108289;-42
2021/11/21 16:52:04;;;;;;;68.40;37.70;;;;;;;7.45;79.31;97911.00;422519;1306;99272;-42
2021/11/21 17:02:13;;;;;;;63.20;35.40;;;;;;;7.46;79.46;97915.56;422146;1304;111528;-43
2021/11/21 17:12:21;;;;;;;65.00;35.60;;;;;;;7.48;79.42;97922.55;418544;1306;5375233;-42
2021/11/21 17:22:28;;;;;;;61.90;32.70;;;;;;;7.51;79.67;97932.34;422617;1306;98094;-42
2021/11/21 17:32:33;;;;;;;61.90;35.00;;;;;;;7.46;79.61;97942.43;422574;1304;107861;-42
2021/11/21 17:42:40;;;;;;;57.50;32.20;;;;;;;7.36;79.60;97947.56;422814;1306;98415;-42
2021/11/21 17:52:49;;;;;;;59.40;33.60;;;;;;;7.29;79.48;97942.38;422549;1306;112597;-42
2021/11/21 18:03:05;;;;;;;57.80;32.00;;;;;;;7.24;79.54;97952.46;422796;1304;108788;-42
2021/11/21 18:33:26;;;;;;;53.90;33.50;;;;;;;7.07;79.65;97996.77;422664;1304;99287;-42
2021/11/21 18:43:34;;;;;;;60.20;37.00;;;;;;;6.93;79.66;98001.82;422578;1304;112535;-44
2021/11/21 18:53:42;;;;;;;60.30;33.70;;;;;;;6.93;79.82;98008.86;422816;1304;109587;-42
2021/11/21 19:03:51;;;;;;;72.50;39.80;;;;;;;6.99;80.01;98011.60;422503;1304;99530;-40
2021/11/21 19:13:58;;;;;;;58.90;30.60;;;;;;;7.02;80.16;98021.80;422861;1306;109119;-41
2021/11/21 19:24:06;;;;;;;70.20;41.20;;;;;;;6.89;80.04;98026.48;422482;1306;99285;-41
2021/11/21 19:34:14;;;;;;;50.30;29.20;;;;;;;6.76;79.87;98034.92;422842;1306;111658;-41
2021/11/21 19:44:20;;;;;;;62.70;33.70;;;;;;;6.76;80.00;98039.66;422409;1306;107960;-41
2021/11/21 19:54:28;;;;;;;101.50;54.60;;;;;;;6.82;80.06;98048.11;422773;1306;98886;-43
2021/11/21 20:04:35;;;;;;;185.30;90.30;;;;;;;6.84;80.21;98056.74;422643;1304;108959;-42
2021/11/21 20:14:42;;;;;;;115.90;63.90;;;;;;;6.80;80.17;98062.45;422844;1306;98903;-41
2021/11/21 20:24:50;;;;;;;109.70;54.80;;;;;;;6.62;79.87;98071.92;422415;1305;111044;-41
2021/11/21 20:45:03;;;;;;;49.40;28.80;;;;;;;6.41;79.82;98087.27;422590;1304;99122;-43
2021/11/21 20:55:07;;;;;;;81.40;44.80;;;;;;;6.42;79.93;98087.37;422745;1304;112070;-41
2021/11/21 21:05:15;;;;;;;56.00;30.80;;;;;;;6.40;80.05;98094.02;422600;1306;108898;-42
2021/11/21 21:15:22;;;;;;;48.10;27.50;;;;;;;6.32;80.05;98100.62;422809;1306;99555;-42
2021/11/21 21:25:30;;;;;;;55.40;27.90;;;;;;;6.20;80.10;98110.75;422238;1306;108918;-42
2021/11/21 21:35:37;;;;;;;42.20;25.30;;;;;;;6.17;79.92;98112.91;422717;1306;98758;-42
2021/11/21 21:45:44;;;;;;;57.20;30.90;;;;;;;6.24;80.23;98111.28;422367;1306;112438;-41
2021/11/21 21:55:52;;;;;;;45.00;28.10;;;;;;;6.33;80.25;98105.58;422813;1306;109010;-43
2021/11/21 22:16:08;;;;;;;51.00;28.70;;;;;;;6.11;80.37;98119.11;422890;1304;107670;-41
2021/11/21 22:26:15;;;;;;;43.30;23.50;;;;;;;6.02;80.41;98121.13;422537;1307;99395;-41
2021/11/21 22:36:23;;;;;;;43.60;24.00;;;;;;;6.01;80.49;98121.90;422831;1306;112450;-41
2021/11/21 22:46:30;;;;;;;77.80;47.40;;;;;;;6.13;80.85;98128.64;422511;1306;108824;-42
2021/11/21 22:56:37;;;;;;;43.50;23.00;;;;;;;6.22;80.85;98136.70;422773;1304;98937;-42
2021/11/21 23:06:45;;;;;;;51.00;24.70;;;;;;;6.09;80.82;98144.62;422405;1306;108866;-42
2021/11/21 23:16:52;;;;;;;56.90;31.10;;;;;;;5.99;81.03;98145.83;422809;1306;98110;-42
2021/11/21 23:27:00;;;;;;;37.70;23.00;;;;;;;5.97;81.09;98149.43;422637;1304;112456;-41
2021/11/21 23:37:05;;;;;;;40.10;23.30;;;;;;;6.00;81.16;98145.70;422641;1306;108929;-40
2021/11/21 23:47:13;;;;;;;43.40;23.60;;;;;;;6.04;81.24;98152.48;422568;1306;101616;-42
2021/11/21 23:57:21;;;;;;;35.90;21.10;;;;;;;6.06;81.31;98155.98;422505;1306;108847;-41
